sensor_id;sensor_type;location;lat;lon;timestamp;P1;durP1;ratioP1;P2;durP2;ratioP2
56425;SDS011;42330;43.620;3.856;2022-12-07T00:02:05;21.92;;;15.95;;
56425;SDS011;42330;43.620;3.856;2022-12-07T00:04:30;25.02;;;16.45;;
56425;SDS011;42330;43.620;3.856;2022-12-07T00:06:56;27.02;;;16.05;;
56425;SDS011;42330;43.620;3.856;2022-12-07T00:09:22;21.70;;;15.00;;
56425;SDS011;42330;43.620;3.856;2022-12-07T00:11:48;21.08;;;14.57;;
56425;SDS011;42330;43.620;3.856;2022-12-07T00:14:16;23.98;;;14.02;;
56425;SDS011;42330;43.620;3.856;2022-12-07T00:16:42;21.13;;;12.80;;
56425;SDS011;42330;43.620;3.856;2022-12-07T00:19:10;19.48;;;13.68;;
56425;SDS011;42330;43.620;3.856;2022-12-07T00:21:37;30.77;;;17.88;;
56425;SDS011;42330;43.620;3.856;2022-12-07T00:24:03;28.48;;;18.17;;
56425;SDS011;42330;43.620;3.856;2022-12-07T00:26:31;33.08;;;19.27;;
56425;SDS011;42330;43.620;3.856;2022-12-07T00:29:03;31.52;;;18.77;;
56425;SDS011;42330;43.620;3.856;2022-12-07T00:31:33;26.20;;;17.58;;
56425;SDS011;42330;43.620;3.856;2022-12-07T00:34:03;23.83;;;15.25;;
56425;SDS011;42330;43.620;3.856;2022-12-07T00:36:36;23.75;;;14.63;;
56425;SDS011;42330;43.620;3.856;2022-12-07T00:39:02;18.45;;;12.95;;
56425;SDS011;42330;43.620;3.856;2022-12-07T00:41:28;18.35;;;12.52;;
56425;SDS011;42330;43.620;3.856;2022-12-07T00:43:55;22.33;;;13.10;;
56425;SDS011;42330;43.620;3.856;2022-12-07T00:46:21;21.10;;;12.80;;
56425;SDS011;42330;43.620;3.856;2022-12-07T00:48:48;17.42;;;11.95;;
56425;SDS011;42330;43.620;3.856;2022-12-07T00:51:15;20.90;;;12.73;;
56425;SDS011;42330;43.620;3.856;2022-12-07T00:53:41;16.40;;;12.07;;
56425;SDS011;42330;43.620;3.856;2022-12-07T00:56:08;18.33;;;11.50;;
56425;SDS011;42330;43.620;3.856;2022-12-07T00:58:38;19.38;;;12.90;;
56425;SDS011;42330;43.620;3.856;2022-12-07T01:01:04;24.88;;;14.02;;
56425;SDS011;42330;43.620;3.856;2022-12-07T01:03:31;21.25;;;13.38;;
56425;SDS011;42330;43.620;3.856;2022-12-07T01:05:57;17.38;;;11.52;;
56425;SDS011;42330;43.620;3.856;2022-12-07T01:08:24;21.35;;;12.25;;
56425;SDS011;42330;43.620;3.856;2022-12-07T01:13:25;30.95;;;19.20;;
56425;SDS011;42330;43.620;3.856;2022-12-07T01:15:50;32.00;;;19.10;;
56425;SDS011;42330;43.620;3.856;2022-12-07T01:18:16;34.80;;;18.13;;
56425;SDS011;42330;43.620;3.856;2022-12-07T01:20:42;32.00;;;18.60;;
56425;SDS011;42330;43.620;3.856;2022-12-07T01:23:07;28.30;;;17.13;;
56425;SDS011;42330;43.620;3.856;2022-12-07T01:25:33;26.50;;;16.30;;
56425;SDS011;42330;43.620;3.856;2022-12-07T01:27:59;25.77;;;16.23;;
56425;SDS011;42330;43.620;3.856;2022-12-07T01:30:24;27.17;;;16.75;;
56425;SDS011;42330;43.620;3.856;2022-12-07T01:32:50;27.85;;;16.55;;
56425;SDS011;42330;43.620;3.856;2022-12-07T01:35:16;30.67;;;19.50;;
56425;SDS011;42330;43.620;3.856;2022-12-07T01:37:41;31.30;;;20.10;;
56425;SDS011;42330;43.620;3.856;2022-12-07T01:40:07;42.85;;;24.15;;
56425;SDS011;42330;43.620;3.856;2022-12-07T01:42:35;30.75;;;19.02;;
56425;SDS011;42330;43.620;3.856;2022-12-07T01:48:01;19.58;;;12.18;;
56425;SDS011;42330;43.620;3.856;2022-12-07T01:50:27;22.50;;;13.90;;
56425;SDS011;42330;43.620;3.856;2022-12-07T01:52:56;23.52;;;14.82;;
56425;SDS011;42330;43.620;3.856;2022-12-07T01:55:26;24.17;;;15.43;;
56425;SDS011;42330;43.620;3.856;2022-12-07T01:57:52;22.70;;;14.82;;
56425;SDS011;42330;43.620;3.856;2022-12-07T02:00:19;19.10;;;11.70;;
56425;SDS011;42330;43.620;3.856;2022-12-07T02:05:23;12.20;;;8.35;;
56425;SDS011;42330;43.620;3.856;2022-12-07T02:07:50;15.32;;;10.00;;
56425;SDS011;42330;43.620;3.856;2022-12-07T02:10:19;20.08;;;11.55;;
56425;SDS011;42330;43.620;3.856;2022-12-07T02:12:51;41.85;;;22.50;;
56425;SDS011;42330;43.620;3.856;2022-12-07T02:15:20;31.83;;;18.05;;
56425;SDS011;42330;43.620;3.856;2022-12-07T02:17:57;18.17;;;10.63;;
56425;SDS011;42330;43.620;3.856;2022-12-07T02:23:39;12.20;;;8.85;;
56425;SDS011;42330;43.620;3.856;2022-12-07T02:31:44;10.63;;;7.35;;
56425;SDS011;42330;43.620;3.856;2022-12-07T02:34:20;10.55;;;7.90;;
56425;SDS011;42330;43.620;3.856;2022-12-07T02:36:55;12.18;;;7.75;;
56425;SDS011;42330;43.620;3.856;2022-12-07T02:42:17;9.95;;;7.50;;
56425;SDS011;42330;43.620;3.856;2022-12-07T02:44:48;10.55;;;7.97;;
56425;SDS011;42330;43.620;3.856;2022-12-07T02:47:16;13.38;;;8.85;;
56425;SDS011;42330;43.620;3.856;2022-12-07T02:49:44;10.50;;;7.68;;
56425;SDS011;42330;43.620;3.856;2022-12-07T02:52:10;11.10;;;7.60;;
56425;SDS011;42330;43.620;3.856;2022-12-07T02:54:36;11.52;;;8.38;;
56425;SDS011;42330;43.620;3.856;2022-12-07T03:13:19;11.02;;;7.20;;
56425;SDS011;42330;43.620;3.856;2022-12-07T03:16:14;9.30;;;7.25;;
56425;SDS011;42330;43.620;3.856;2022-12-07T03:19:24;10.68;;;7.38;;
56425;SDS011;42330;43.620;3.856;2022-12-07T03:21:40;10.18;;;7.65;;
56425;SDS011;42330;43.620;3.856;2022-12-07T03:24:20;9.23;;;7.28;;
56425;SDS011;42330;43.620;3.856;2022-12-07T03:26:51;9.27;;;7.20;;
56425;SDS011;42330;43.620;3.856;2022-12-07T03:29:25;10.75;;;8.05;;
56425;SDS011;42330;43.620;3.856;2022-12-07T03:35:00;10.07;;;7.28;;
56425;SDS011;42330;43.620;3.856;2022-12-07T03:37:33;8.63;;;7.50;;
56425;SDS011;42330;43.620;3.856;2022-12-07T03:40:13;9.77;;;6.97;;
56425;SDS011;42330;43.620;3.856;2022-12-07T03:42:43;9.88;;;6.70;;
56425;SDS011;42330;43.620;3.856;2022-12-07T03:45:09;9.07;;;6.80;;
56425;SDS011;42330;43.620;3.856;2022-12-07T03:53:02;9.65;;;7.32;;
56425;SDS011;42330;43.620;3.856;2022-12-07T03:55:35;10.65;;;7.13;;
56425;SDS011;42330;43.620;3.856;2022-12-07T03:58:06;9.73;;;7.35;;
56425;SDS011;42330;43.620;3.856;2022-12-07T04:00:35;8.85;;;6.72;;
56425;SDS011;42330;43.620;3.856;2022-12-07T04:03:01;9.85;;;7.18;;
56425;SDS011;42330;43.620;3.856;2022-12-07T04:05:26;8.45;;;6.68;;
56425;SDS011;42330;43.620;3.856;2022-12-07T04:07:52;9.35;;;7.30;;
56425;SDS011;42330;43.620;3.856;2022-12-07T04:10:18;8.15;;;6.35;;
56425;SDS011;42330;43.620;3.856;2022-12-07T04:12:44;11.75;;;7.68;;
56425;SDS011;42330;43.620;3.856;2022-12-07T04:15:10;11.95;;;6.82;;
56425;SDS011;42330;43.620;3.856;2022-12-07T04:17:36;10.93;;;7.43;;
56425;SDS011;42330;43.620;3.856;2022-12-07T04:20:02;9.50;;;7.32;;
56425;SDS011;42330;43.620;3.856;2022-12-07T04:22:29;9.35;;;7.28;;
56425;SDS011;42330;43.620;3.856;2022-12-07T04:24:54;8.30;;;6.72;;
56425;SDS011;42330;43.620;3.856;2022-12-07T04:27:20;8.45;;;6.82;;
56425;SDS011;42330;43.620;3.856;2022-12-07T04:29:45;10.88;;;7.95;;
56425;SDS011;42330;43.620;3.856;2022-12-07T04:32:11;8.82;;;6.95;;
56425;SDS011;42330;43.620;3.856;2022-12-07T04:34:37;9.15;;;6.80;;
56425;SDS011;42330;43.620;3.856;2022-12-07T04:37:02;8.60;;;7.40;;
56425;SDS011;42330;43.620;3.856;2022-12-07T04:39:29;12.57;;;7.32;;
56425;SDS011;42330;43.620;3.856;2022-12-07T04:41:56;10.95;;;7.25;;
56425;SDS011;42330;43.620;3.856;2022-12-07T04:44:24;9.05;;;7.22;;
56425;SDS011;42330;43.620;3.856;2022-12-07T04:46:50;9.63;;;6.93;;
56425;SDS011;42330;43.620;3.856;2022-12-07T04:49:16;8.73;;;7.18;;
56425;SDS011;42330;43.620;3.856;2022-12-07T04:51:44;9.27;;;7.20;;
56425;SDS011;42330;43.620;3.856;2022-12-07T04:54:10;8.32;;;6.88;;
56425;SDS011;42330;43.620;3.856;2022-12-07T04:56:37;9.25;;;7.03;;
56425;SDS011;42330;43.620;3.856;2022-12-07T04:59:04;8.82;;;7.20;;
56425;SDS011;42330;43.620;3.856;2022-12-07T05:01:30;9.65;;;7.07;;
56425;SDS011;42330;43.620;3.856;2022-12-07T05:03:56;10.05;;;7.13;;
56425;SDS011;42330;43.620;3.856;2022-12-07T05:06:22;9.05;;;6.93;;
56425;SDS011;42330;43.620;3.856;2022-12-07T05:08:48;9.18;;;6.93;;
56425;SDS011;42330;43.620;3.856;2022-12-07T05:11:14;9.98;;;7.78;;
56425;SDS011;42330;43.620;3.856;2022-12-07T05:14:01;8.77;;;7.03;;
56425;SDS011;42330;43.620;3.856;2022-12-07T05:16:27;10.50;;;7.43;;
56425;SDS011;42330;43.620;3.856;2022-12-07T05:18:53;9.93;;;6.97;;
56425;SDS011;42330;43.620;3.856;2022-12-07T05:21:19;8.75;;;7.05;;
56425;SDS011;42330;43.620;3.856;2022-12-07T05:23:44;9.10;;;7.53;;
56425;SDS011;42330;43.620;3.856;2022-12-07T05:26:10;10.18;;;7.68;;
56425;SDS011;42330;43.620;3.856;2022-12-07T05:28:36;9.15;;;6.97;;
56425;SDS011;42330;43.620;3.856;2022-12-07T05:31:02;8.90;;;7.20;;
56425;SDS011;42330;43.620;3.856;2022-12-07T05:33:28;9.90;;;7.47;;
56425;SDS011;42330;43.620;3.856;2022-12-07T05:35:54;8.50;;;6.88;;
56425;SDS011;42330;43.620;3.856;2022-12-07T05:38:19;8.77;;;6.90;;
56425;SDS011;42330;43.620;3.856;2022-12-07T05:40:45;8.70;;;7.25;;
56425;SDS011;42330;43.620;3.856;2022-12-07T05:43:11;10.35;;;7.55;;
56425;SDS011;42330;43.620;3.856;2022-12-07T05:45:36;8.25;;;6.80;;
56425;SDS011;42330;43.620;3.856;2022-12-07T05:48:02;8.95;;;6.82;;
56425;SDS011;42330;43.620;3.856;2022-12-07T05:50:28;8.93;;;6.97;;
56425;SDS011;42330;43.620;3.856;2022-12-07T05:52:53;8.80;;;6.53;;
56425;SDS011;42330;43.620;3.856;2022-12-07T05:55:19;8.77;;;6.88;;
56425;SDS011;42330;43.620;3.856;2022-12-07T05:57:45;9.32;;;6.75;;
56425;SDS011;42330;43.620;3.856;2022-12-07T06:00:31;7.85;;;6.43;;
56425;SDS011;42330;43.620;3.856;2022-12-07T06:02:57;7.85;;;6.70;;
56425;SDS011;42330;43.620;3.856;2022-12-07T06:05:22;11.00;;;6.82;;
56425;SDS011;42330;43.620;3.856;2022-12-07T06:07:48;11.13;;;6.78;;
56425;SDS011;42330;43.620;3.856;2022-12-07T06:10:14;9.65;;;6.97;;
56425;SDS011;42330;43.620;3.856;2022-12-07T06:12:39;10.20;;;7.18;;
56425;SDS011;42330;43.620;3.856;2022-12-07T06:15:07;12.38;;;7.13;;
56425;SDS011;42330;43.620;3.856;2022-12-07T06:17:34;9.80;;;7.22;;
56425;SDS011;42330;43.620;3.856;2022-12-07T06:20:00;11.02;;;7.38;;
56425;SDS011;42330;43.620;3.856;2022-12-07T06:22:26;8.20;;;6.63;;
56425;SDS011;42330;43.620;3.856;2022-12-07T06:24:52;8.70;;;7.18;;
56425;SDS011;42330;43.620;3.856;2022-12-07T06:27:18;9.07;;;7.20;;
56425;SDS011;42330;43.620;3.856;2022-12-07T06:29:43;10.25;;;7.30;;
56425;SDS011;42330;43.620;3.856;2022-12-07T06:32:09;10.52;;;7.13;;
56425;SDS011;42330;43.620;3.856;2022-12-07T06:34:35;13.13;;;7.55;;
56425;SDS011;42330;43.620;3.856;2022-12-07T06:37:00;9.65;;;7.30;;
56425;SDS011;42330;43.620;3.856;2022-12-07T06:39:27;8.55;;;6.90;;
56425;SDS011;42330;43.620;3.856;2022-12-07T06:41:53;12.48;;;7.22;;
56425;SDS011;42330;43.620;3.856;2022-12-07T06:44:19;11.52;;;7.65;;
56425;SDS011;42330;43.620;3.856;2022-12-07T06:46:45;9.70;;;7.63;;
56425;SDS011;42330;43.620;3.856;2022-12-07T06:49:11;9.63;;;7.10;;
56425;SDS011;42330;43.620;3.856;2022-12-07T06:51:37;11.63;;;7.40;;
56425;SDS011;42330;43.620;3.856;2022-12-07T06:54:06;10.27;;;7.38;;
56425;SDS011;42330;43.620;3.856;2022-12-07T06:56:33;9.45;;;7.20;;
56425;SDS011;42330;43.620;3.856;2022-12-07T06:58:59;9.18;;;6.60;;
56425;SDS011;42330;43.620;3.856;2022-12-07T07:01:24;10.07;;;7.30;;
56425;SDS011;42330;43.620;3.856;2022-12-07T07:03:50;11.00;;;7.72;;
56425;SDS011;42330;43.620;3.856;2022-12-07T07:06:16;9.85;;;7.00;;
56425;SDS011;42330;43.620;3.856;2022-12-07T07:08:41;11.10;;;7.03;;
56425;SDS011;42330;43.620;3.856;2022-12-07T07:11:07;10.52;;;7.43;;
56425;SDS011;42330;43.620;3.856;2022-12-07T07:13:34;10.88;;;7.97;;
56425;SDS011;42330;43.620;3.856;2022-12-07T07:16:00;9.60;;;7.55;;
56425;SDS011;42330;43.620;3.856;2022-12-07T07:18:26;11.45;;;7.75;;
56425;SDS011;42330;43.620;3.856;2022-12-07T07:20:52;10.15;;;7.65;;
56425;SDS011;42330;43.620;3.856;2022-12-07T07:23:19;10.77;;;7.60;;
56425;SDS011;42330;43.620;3.856;2022-12-07T07:25:46;11.95;;;7.85;;
56425;SDS011;42330;43.620;3.856;2022-12-07T07:28:12;10.07;;;7.93;;
56425;SDS011;42330;43.620;3.856;2022-12-07T07:30:38;10.10;;;7.38;;
56425;SDS011;42330;43.620;3.856;2022-12-07T07:33:03;9.73;;;7.47;;
56425;SDS011;42330;43.620;3.856;2022-12-07T07:35:30;11.15;;;7.93;;
56425;SDS011;42330;43.620;3.856;2022-12-07T07:37:57;11.85;;;7.82;;
56425;SDS011;42330;43.620;3.856;2022-12-07T07:40:23;13.15;;;9.00;;
56425;SDS011;42330;43.620;3.856;2022-12-07T07:42:49;12.77;;;8.35;;
56425;SDS011;42330;43.620;3.856;2022-12-07T07:45:16;13.55;;;9.05;;
56425;SDS011;42330;43.620;3.856;2022-12-07T07:47:42;11.23;;;7.82;;
56425;SDS011;42330;43.620;3.856;2022-12-07T07:50:08;14.45;;;7.90;;
56425;SDS011;42330;43.620;3.856;2022-12-07T07:52:34;12.18;;;8.18;;
56425;SDS011;42330;43.620;3.856;2022-12-07T07:55:00;11.55;;;7.97;;
56425;SDS011;42330;43.620;3.856;2022-12-07T07:57:25;10.57;;;7.95;;
56425;SDS011;42330;43.620;3.856;2022-12-07T07:59:52;12.25;;;7.88;;
56425;SDS011;42330;43.620;3.856;2022-12-07T08:02:18;11.80;;;7.50;;
56425;SDS011;42330;43.620;3.856;2022-12-07T08:04:47;10.80;;;7.40;;
56425;SDS011;42330;43.620;3.856;2022-12-07T08:07:13;10.80;;;7.45;;
56425;SDS011;42330;43.620;3.856;2022-12-07T08:09:40;10.52;;;7.20;;
56425;SDS011;42330;43.620;3.856;2022-12-07T08:12:05;10.30;;;7.35;;
56425;SDS011;42330;43.620;3.856;2022-12-07T08:14:31;11.45;;;7.50;;
56425;SDS011;42330;43.620;3.856;2022-12-07T08:16:57;9.82;;;6.90;;
56425;SDS011;42330;43.620;3.856;2022-12-07T08:19:23;13.25;;;7.30;;
56425;SDS011;42330;43.620;3.856;2022-12-07T08:21:49;9.00;;;6.68;;
56425;SDS011;42330;43.620;3.856;2022-12-07T08:24:14;10.15;;;6.70;;
56425;SDS011;42330;43.620;3.856;2022-12-07T08:26:41;8.13;;;6.40;;
56425;SDS011;42330;43.620;3.856;2022-12-07T08:29:06;8.57;;;6.15;;
56425;SDS011;42330;43.620;3.856;2022-12-07T08:31:32;8.52;;;6.50;;
56425;SDS011;42330;43.620;3.856;2022-12-07T08:33:58;9.13;;;6.50;;
56425;SDS011;42330;43.620;3.856;2022-12-07T08:36:24;7.95;;;6.32;;
56425;SDS011;42330;43.620;3.856;2022-12-07T08:38:50;9.48;;;5.90;;
56425;SDS011;42330;43.620;3.856;2022-12-07T08:41:16;8.50;;;5.78;;
56425;SDS011;42330;43.620;3.856;2022-12-07T08:43:42;7.85;;;6.00;;
56425;SDS011;42330;43.620;3.856;2022-12-07T08:48:42;6.82;;;5.05;;
56425;SDS011;42330;43.620;3.856;2022-12-07T08:51:12;8.95;;;5.80;;
56425;SDS011;42330;43.620;3.856;2022-12-07T08:53:38;9.43;;;5.35;;
56425;SDS011;42330;43.620;3.856;2022-12-07T08:56:05;7.68;;;5.78;;
56425;SDS011;42330;43.620;3.856;2022-12-07T08:58:32;8.77;;;5.70;;
56425;SDS011;42330;43.620;3.856;2022-12-07T09:01:00;8.73;;;5.70;;
56425;SDS011;42330;43.620;3.856;2022-12-07T09:03:25;7.28;;;5.38;;
56425;SDS011;42330;43.620;3.856;2022-12-07T09:05:52;7.20;;;5.63;;
56425;SDS011;42330;43.620;3.856;2022-12-07T09:08:18;6.85;;;5.50;;
56425;SDS011;42330;43.620;3.856;2022-12-07T09:10:44;7.30;;;5.15;;
56425;SDS011;42330;43.620;3.856;2022-12-07T09:13:11;6.93;;;5.30;;
56425;SDS011;42330;43.620;3.856;2022-12-07T09:15:37;8.63;;;5.60;;
56425;SDS011;42330;43.620;3.856;2022-12-07T09:18:03;7.55;;;5.28;;
56425;SDS011;42330;43.620;3.856;2022-12-07T09:20:28;9.45;;;5.68;;
56425;SDS011;42330;43.620;3.856;2022-12-07T09:22:54;9.18;;;5.18;;
56425;SDS011;42330;43.620;3.856;2022-12-07T09:25:20;6.72;;;4.70;;
56425;SDS011;42330;43.620;3.856;2022-12-07T09:27:45;8.40;;;4.68;;
56425;SDS011;42330;43.620;3.856;2022-12-07T09:30:11;5.75;;;4.45;;
56425;SDS011;42330;43.620;3.856;2022-12-07T09:32:37;7.78;;;4.63;;
56425;SDS011;42330;43.620;3.856;2022-12-07T09:35:03;5.18;;;4.30;;
56425;SDS011;42330;43.620;3.856;2022-12-07T09:37:29;5.72;;;4.65;;
56425;SDS011;42330;43.620;3.856;2022-12-07T09:39:56;6.10;;;4.07;;
56425;SDS011;42330;43.620;3.856;2022-12-07T09:42:44;5.43;;;4.63;;
56425;SDS011;42330;43.620;3.856;2022-12-07T09:45:19;7.68;;;4.50;;
56425;SDS011;42330;43.620;3.856;2022-12-07T09:47:48;5.93;;;4.65;;
56425;SDS011;42330;43.620;3.856;2022-12-07T09:50:15;6.03;;;4.28;;
56425;SDS011;42330;43.620;3.856;2022-12-07T09:52:44;5.82;;;4.60;;
56425;SDS011;42330;43.620;3.856;2022-12-07T09:55:13;5.03;;;4.00;;
56425;SDS011;42330;43.620;3.856;2022-12-07T09:57:46;6.40;;;3.90;;
56425;SDS011;42330;43.620;3.856;2022-12-07T10:00:13;6.07;;;3.70;;
56425;SDS011;42330;43.620;3.856;2022-12-07T10:02:42;5.07;;;3.97;;
56425;SDS011;42330;43.620;3.856;2022-12-07T10:05:15;6.07;;;4.03;;
56425;SDS011;42330;43.620;3.856;2022-12-07T10:07:44;7.05;;;4.25;;
56425;SDS011;42330;43.620;3.856;2022-12-07T10:10:15;6.68;;;3.97;;
56425;SDS011;42330;43.620;3.856;2022-12-07T10:15:46;5.30;;;3.55;;
56425;SDS011;42330;43.620;3.856;2022-12-07T10:18:35;5.88;;;3.65;;
56425;SDS011;42330;43.620;3.856;2022-12-07T10:21:19;9.45;;;4.10;;
56425;SDS011;42330;43.620;3.856;2022-12-07T10:23:59;5.00;;;3.30;;
56425;SDS011;42330;43.620;3.856;2022-12-07T10:26:32;5.10;;;3.70;;
56425;SDS011;42330;43.620;3.856;2022-12-07T10:28:59;4.40;;;3.53;;
56425;SDS011;42330;43.620;3.856;2022-12-07T10:31:38;3.83;;;3.17;;
56425;SDS011;42330;43.620;3.856;2022-12-07T10:34:23;4.47;;;3.63;;
56425;SDS011;42330;43.620;3.856;2022-12-07T10:36:51;4.60;;;3.83;;
56425;SDS011;42330;43.620;3.856;2022-12-07T10:39:22;7.82;;;3.50;;
56425;SDS011;42330;43.620;3.856;2022-12-07T10:41:58;7.63;;;4.15;;
56425;SDS011;42330;43.620;3.856;2022-12-07T10:44:27;3.55;;;3.00;;
56425;SDS011;42330;43.620;3.856;2022-12-07T10:47:01;4.93;;;3.33;;
56425;SDS011;42330;43.620;3.856;2022-12-07T10:52:14;4.65;;;3.20;;
56425;SDS011;42330;43.620;3.856;2022-12-07T11:00:46;4.75;;;3.10;;
56425;SDS011;42330;43.620;3.856;2022-12-07T11:03:44;3.30;;;2.53;;
56425;SDS011;42330;43.620;3.856;2022-12-07T11:06:34;3.78;;;2.88;;
56425;SDS011;42330;43.620;3.856;2022-12-07T11:09:19;5.93;;;3.47;;
56425;SDS011;42330;43.620;3.856;2022-12-07T11:20:50;3.53;;;2.70;;
56425;SDS011;42330;43.620;3.856;2022-12-07T11:23:31;3.70;;;2.70;;
56425;SDS011;42330;43.620;3.856;2022-12-07T11:26:06;3.05;;;2.47;;
56425;SDS011;42330;43.620;3.856;2022-12-07T11:29:03;3.10;;;2.50;;
56425;SDS011;42330;43.620;3.856;2022-12-07T11:37:36;3.38;;;2.47;;
56425;SDS011;42330;43.620;3.856;2022-12-07T11:45:44;3.17;;;2.30;;
56425;SDS011;42330;43.620;3.856;2022-12-07T11:48:19;3.75;;;2.85;;
56425;SDS011;42330;43.620;3.856;2022-12-07T11:50:53;2.53;;;2.05;;
56425;SDS011;42330;43.620;3.856;2022-12-07T11:53:26;3.97;;;2.40;;
56425;SDS011;42330;43.620;3.856;2022-12-07T11:56:17;3.05;;;2.00;;
56425;SDS011;42330;43.620;3.856;2022-12-07T12:03:47;3.22;;;2.13;;
56425;SDS011;42330;43.620;3.856;2022-12-07T12:06:16;3.05;;;1.73;;
56425;SDS011;42330;43.620;3.856;2022-12-07T12:19:41;2.38;;;1.70;;
56425;SDS011;42330;43.620;3.856;2022-12-07T12:22:20;3.05;;;1.83;;
56425;SDS011;42330;43.620;3.856;2022-12-07T12:24:53;2.75;;;1.70;;
56425;SDS011;42330;43.620;3.856;2022-12-07T12:27:24;3.25;;;1.63;;
56425;SDS011;42330;43.620;3.856;2022-12-07T12:29:52;3.00;;;1.95;;
56425;SDS011;42330;43.620;3.856;2022-12-07T12:32:21;3.38;;;1.95;;
56425;SDS011;42330;43.620;3.856;2022-12-07T12:37:57;2.67;;;1.88;;
56425;SDS011;42330;43.620;3.856;2022-12-07T12:40:47;2.30;;;1.70;;
56425;SDS011;42330;43.620;3.856;2022-12-07T12:49:30;2.58;;;1.70;;
56425;SDS011;42330;43.620;3.856;2022-12-07T12:54:37;2.35;;;1.70;;
56425;SDS011;42330;43.620;3.856;2022-12-07T13:18:27;2.38;;;1.50;;
56425;SDS011;42330;43.620;3.856;2022-12-07T13:23:35;2.35;;;1.50;;
56425;SDS011;42330;43.620;3.856;2022-12-07T13:26:24;2.65;;;1.42;;
56425;SDS011;42330;43.620;3.856;2022-12-07T13:34:32;2.10;;;1.40;;
56425;SDS011;42330;43.620;3.856;2022-12-07T13:37:00;1.90;;;1.38;;
56425;SDS011;42330;43.620;3.856;2022-12-07T13:39:45;2.00;;;1.40;;
56425;SDS011;42330;43.620;3.856;2022-12-07T13:42:24;1.83;;;1.30;;
56425;SDS011;42330;43.620;3.856;2022-12-07T13:44:58;1.48;;;1.20;;
56425;SDS011;42330;43.620;3.856;2022-12-07T13:50:00;2.33;;;1.73;;
56425;SDS011;42330;43.620;3.856;2022-12-07T13:52:29;1.67;;;1.45;;
56425;SDS011;42330;43.620;3.856;2022-12-07T13:54:57;3.47;;;1.55;;
56425;SDS011;42330;43.620;3.856;2022-12-07T13:57:24;1.63;;;1.30;;
56425;SDS011;42330;43.620;3.856;2022-12-07T13:59:52;5.43;;;1.70;;
56425;SDS011;42330;43.620;3.856;2022-12-07T14:02:22;2.13;;;1.52;;
56425;SDS011;42330;43.620;3.856;2022-12-07T14:05:05;2.25;;;1.30;;
56425;SDS011;42330;43.620;3.856;2022-12-07T14:07:32;2.92;;;1.33;;
56425;SDS011;42330;43.620;3.856;2022-12-07T14:10:06;1.70;;;1.17;;
56425;SDS011;42330;43.620;3.856;2022-12-07T14:12:48;1.92;;;1.20;;
56425;SDS011;42330;43.620;3.856;2022-12-07T14:15:21;2.17;;;1.60;;
56425;SDS011;42330;43.620;3.856;2022-12-07T14:17:50;5.45;;;1.65;;
56425;SDS011;42330;43.620;3.856;2022-12-07T14:20:37;1.90;;;1.30;;
56425;SDS011;42330;43.620;3.856;2022-12-07T14:23:04;2.20;;;1.35;;
56425;SDS011;42330;43.620;3.856;2022-12-07T14:25:48;3.72;;;1.55;;
56425;SDS011;42330;43.620;3.856;2022-12-07T14:28:27;2.45;;;1.52;;
56425;SDS011;42330;43.620;3.856;2022-12-07T14:30:54;2.38;;;1.60;;
56425;SDS011;42330;43.620;3.856;2022-12-07T14:33:20;5.03;;;2.13;;
56425;SDS011;42330;43.620;3.856;2022-12-07T14:35:47;1.80;;;1.30;;
56425;SDS011;42330;43.620;3.856;2022-12-07T14:38:12;2.40;;;1.40;;
56425;SDS011;42330;43.620;3.856;2022-12-07T14:40:38;2.85;;;1.60;;
56425;SDS011;42330;43.620;3.856;2022-12-07T14:43:05;4.88;;;1.70;;
56425;SDS011;42330;43.620;3.856;2022-12-07T14:45:36;2.75;;;1.25;;
56425;SDS011;42330;43.620;3.856;2022-12-07T14:48:02;6.63;;;1.65;;
56425;SDS011;42330;43.620;3.856;2022-12-07T14:50:27;3.58;;;1.70;;
56425;SDS011;42330;43.620;3.856;2022-12-07T14:52:55;2.45;;;1.38;;
56425;SDS011;42330;43.620;3.856;2022-12-07T14:55:25;1.95;;;1.38;;
56425;SDS011;42330;43.620;3.856;2022-12-07T14:57:53;3.10;;;1.67;;
56425;SDS011;42330;43.620;3.856;2022-12-07T15:00:20;2.40;;;1.38;;
56425;SDS011;42330;43.620;3.856;2022-12-07T15:02:47;2.67;;;1.45;;
56425;SDS011;42330;43.620;3.856;2022-12-07T15:05:13;4.38;;;1.75;;
56425;SDS011;42330;43.620;3.856;2022-12-07T15:07:39;3.10;;;1.58;;
56425;SDS011;42330;43.620;3.856;2022-12-07T15:10:06;2.97;;;1.75;;
56425;SDS011;42330;43.620;3.856;2022-12-07T15:12:38;2.90;;;1.77;;
56425;SDS011;42330;43.620;3.856;2022-12-07T15:15:04;4.50;;;1.92;;
56425;SDS011;42330;43.620;3.856;2022-12-07T15:17:30;4.53;;;1.77;;
56425;SDS011;42330;43.620;3.856;2022-12-07T15:19:56;5.03;;;2.17;;
56425;SDS011;42330;43.620;3.856;2022-12-07T15:22:21;2.83;;;1.73;;
56425;SDS011;42330;43.620;3.856;2022-12-07T15:24:47;2.03;;;1.60;;
56425;SDS011;42330;43.620;3.856;2022-12-07T15:27:13;2.40;;;1.60;;
56425;SDS011;42330;43.620;3.856;2022-12-07T15:29:38;2.33;;;1.50;;
56425;SDS011;42330;43.620;3.856;2022-12-07T15:32:04;2.50;;;1.67;;
56425;SDS011;42330;43.620;3.856;2022-12-07T15:34:30;2.70;;;1.60;;
56425;SDS011;42330;43.620;3.856;2022-12-07T15:36:56;2.53;;;1.77;;
56425;SDS011;42330;43.620;3.856;2022-12-07T15:39:22;4.72;;;2.10;;
56425;SDS011;42330;43.620;3.856;2022-12-07T15:41:48;3.28;;;1.77;;
56425;SDS011;42330;43.620;3.856;2022-12-07T15:44:14;9.25;;;2.63;;
56425;SDS011;42330;43.620;3.856;2022-12-07T15:46:58;6.38;;;2.60;;
56425;SDS011;42330;43.620;3.856;2022-12-07T15:49:24;10.20;;;4.30;;
56425;SDS011;42330;43.620;3.856;2022-12-07T15:51:50;7.43;;;4.90;;
56425;SDS011;42330;43.620;3.856;2022-12-07T15:54:26;8.40;;;5.05;;
56425;SDS011;42330;43.620;3.856;2022-12-07T15:56:53;5.35;;;2.50;;
56425;SDS011;42330;43.620;3.856;2022-12-07T15:59:20;4.25;;;2.70;;
56425;SDS011;42330;43.620;3.856;2022-12-07T16:01:45;3.78;;;2.17;;
56425;SDS011;42330;43.620;3.856;2022-12-07T16:04:11;2.85;;;2.13;;
56425;SDS011;42330;43.620;3.856;2022-12-07T16:06:37;9.93;;;2.50;;
56425;SDS011;42330;43.620;3.856;2022-12-07T16:09:04;3.38;;;1.92;;
56425;SDS011;42330;43.620;3.856;2022-12-07T16:11:30;4.68;;;2.20;;
56425;SDS011;42330;43.620;3.856;2022-12-07T16:13:56;2.47;;;1.85;;
56425;SDS011;42330;43.620;3.856;2022-12-07T16:16:22;4.80;;;2.63;;
56425;SDS011;42330;43.620;3.856;2022-12-07T16:18:48;8.45;;;5.22;;
56425;SDS011;42330;43.620;3.856;2022-12-07T16:21:16;5.45;;;3.33;;
56425;SDS011;42330;43.620;3.856;2022-12-07T16:23:42;7.30;;;4.70;;
56425;SDS011;42330;43.620;3.856;2022-12-07T16:26:10;6.82;;;4.07;;
56425;SDS011;42330;43.620;3.856;2022-12-07T16:28:41;5.57;;;3.50;;
56425;SDS011;42330;43.620;3.856;2022-12-07T16:31:09;4.32;;;2.95;;
56425;SDS011;42330;43.620;3.856;2022-12-07T16:33:39;4.40;;;3.00;;
56425;SDS011;42330;43.620;3.856;2022-12-07T16:36:07;4.60;;;2.70;;
56425;SDS011;42330;43.620;3.856;2022-12-07T16:38:33;5.47;;;2.40;;
56425;SDS011;42330;43.620;3.856;2022-12-07T16:41:00;4.85;;;2.63;;
56425;SDS011;42330;43.620;3.856;2022-12-07T16:43:26;4.32;;;2.42;;
56425;SDS011;42330;43.620;3.856;2022-12-07T16:45:52;4.18;;;2.97;;
56425;SDS011;42330;43.620;3.856;2022-12-07T16:48:17;3.40;;;2.33;;
56425;SDS011;42330;43.620;3.856;2022-12-07T16:50:43;3.88;;;2.85;;
56425;SDS011;42330;43.620;3.856;2022-12-07T16:53:10;4.63;;;2.60;;
56425;SDS011;42330;43.620;3.856;2022-12-07T16:55:37;5.80;;;2.22;;
56425;SDS011;42330;43.620;3.856;2022-12-07T16:58:07;3.72;;;2.28;;
56425;SDS011;42330;43.620;3.856;2022-12-07T17:00:33;4.68;;;2.72;;
56425;SDS011;42330;43.620;3.856;2022-12-07T17:02:59;3.03;;;2.25;;
56425;SDS011;42330;43.620;3.856;2022-12-07T17:05:25;3.47;;;2.15;;
56425;SDS011;42330;43.620;3.856;2022-12-07T17:07:53;4.60;;;2.75;;
56425;SDS011;42330;43.620;3.856;2022-12-07T17:10:19;8.50;;;4.55;;